Terminal Aerodrome Forecast
Issued by NWS Sterling, VA

Current Version | Previous Version | Graphics & Text | Print | Product List | Glossary On
Versions: 1 2 3 4 5 6 7 8 9 10 11 12 13 14 15 16 17 18 19 20 21 22 23
000
FTUS41 KLWX 142043 AAA
TAFDCA
TAF AMD
KDCA 142043Z 1421/1518 12003KT P6SM BKN018
     FM142130 00000KT P6SM FEW035
     FM150200 00000KT P6SM SCT020
     FM150300 00000KT P6SM BKN015
     FM150500 00000KT P6SM BKN008
     FM150600 00000KT 5SM BR BKN008
     FM151400 21008KT 6SM BR SCT008
     FM151500 21009KT P6SM SCT250=

USA.gov is the U.S. government's official web portal to all federal, state and local government web resources and services.